Time;durP1;ratioP1;P1;durP2;ratioP2;P2;SDS_P1;SDS_P2;PMS_P1;PMS_P2;Temp;Humidity;BMP_temperature;BMP_pressure;BME280_temperature;BME280_humidity;BME280_pressure;Samples;Min_cycle;Max_cycle;Signal;HPM_P1;HPM_P2
2023/01/22 00:01:17;;;;;;;;;43.25;34.00;;;;;;;;4900402;28;45284;-76
2023/01/22 00:03:42;;;;;;;;;42.75;38.75;;;;;;;;4900260;28;45446;-75
2023/01/22 00:06:09;;;;;;;;;33.25;27.25;;;;;;;;4899816;28;45464;-74
2023/01/22 00:08:34;;;;;;;;;33.00;29.00;;;;;;;;4899420;28;46447;-75
2023/01/22 00:10:59;;;;;;;;;43.25;36.25;;;;;;;;4899393;28;45341;-76
2023/01/22 00:13:25;;;;;;;;;36.75;32.75;;;;;;;;4899573;28;45365;-74
2023/01/22 00:15:51;;;;;;;;;43.50;32.75;;;;;;;;4899716;28;45560;-75
2023/01/22 00:18:16;;;;;;;;;36.75;32.75;;;;;;;;4899333;28;46892;-74
2023/01/22 00:20:46;;;;;;;;;40.50;36.50;;;;;;;;4899139;28;45477;-74
2023/01/22 00:23:12;;;;;;;;;31.75;28.50;;;;;;;;4897686;28;45308;-74
2023/01/22 00:25:37;;;;;;;;;29.25;29.00;;;;;;;;4899353;28;45301;-74
2023/01/22 00:28:02;;;;;;;;;41.00;35.25;;;;;;;;4899509;28;46216;-75
2023/01/22 00:30:27;;;;;;;;;43.50;38.00;;;;;;;;4898644;28;45343;-74
2023/01/22 00:32:52;;;;;;;;;35.50;34.75;;;;;;;;4911335;28;45303;-76
2023/01/22 00:35:18;;;;;;;;;41.25;37.25;;;;;;;;4899708;28;45278;-76
2023/01/22 00:37:45;;;;;;;;;40.25;32.50;;;;;;;;4898119;28;45431;-75
2023/01/22 00:40:10;;;;;;;;;32.75;27.00;;;;;;;;4898740;28;45240;-75
2023/01/22 00:42:36;;;;;;;;;39.00;32.00;;;;;;;;4899210;28;45375;-76
2023/01/22 00:45:01;;;;;;;;;37.25;36.50;;;;;;;;4898840;28;45376;-75
2023/01/22 00:47:26;;;;;;;;;44.00;39.00;;;;;;;;4898952;28;46223;-76
2023/01/22 00:49:51;;;;;;;;;44.25;41.50;;;;;;;;4899227;28;45399;-75
2023/01/22 00:52:16;;;;;;;;;33.75;28.75;;;;;;;;4908436;28;45414;-75
2023/01/22 00:54:42;;;;;;;;;46.50;38.75;;;;;;;;4902950;28;45462;-75
2023/01/22 00:57:07;;;;;;;;;41.00;33.25;;;;;;;;4898431;28;46320;-75
2023/01/22 00:59:32;;;;;;;;;43.75;38.00;;;;;;;;4898820;29;45371;-74
2023/01/22 01:01:57;;;;;;;;;43.00;36.25;;;;;;;;4898277;28;45271;-74
2023/01/22 01:04:22;;;;;;;;;48.00;39.75;;;;;;;;4897770;29;45612;-73
2023/01/22 01:06:48;;;;;;;;;31.50;29.00;;;;;;;;4896659;29;46224;-76
2023/01/22 01:09:13;;;;;;;;;48.25;36.75;;;;;;;;4898754;28;45804;-76
2023/01/22 01:11:38;;;;;;;;;33.75;28.25;;;;;;;;4898867;28;45399;-74
2023/01/22 01:14:03;;;;;;;;;30.25;30.25;;;;;;;;4899448;28;45311;-74
2023/01/22 01:16:30;;;;;;;;;42.75;36.75;;;;;;;;4898912;28;45434;-75
2023/01/22 01:19:03;;;;;;;;;46.00;40.50;;;;;;;;4899975;28;45449;-76
2023/01/22 01:21:28;;;;;;;;;38.00;34.25;;;;;;;;4899300;28;45376;-75
2023/01/22 01:23:54;;;;;;;;;37.25;36.00;;;;;;;;4899413;29;45375;-76
2023/01/22 01:26:20;;;;;;;;;32.75;31.25;;;;;;;;4899219;28;46310;-76
2023/01/22 01:28:46;;;;;;;;;37.75;37.25;;;;;;;;4899102;28;45351;-77
2023/01/22 01:31:13;;;;;;;;;52.00;42.00;;;;;;;;4899473;28;45379;-75
2023/01/22 01:33:38;;;;;;;;;25.50;17.25;;;;;;;;4898894;28;45275;-75
2023/01/22 01:36:07;;;;;;;;;41.75;34.75;;;;;;;;4898917;28;45489;-73
2023/01/22 01:38:32;;;;;;;;;40.00;39.50;;;;;;;;4898893;28;45386;-76
2023/01/22 01:40:58;;;;;;;;;46.25;41.25;;;;;;;;4908627;28;45433;-76
2023/01/22 01:43:23;;;;;;;;;60.25;39.75;;;;;;;;4917899;28;45477;-76
2023/01/22 01:45:49;;;;;;;;;48.50;39.25;;;;;;;;4917881;28;47372;-74
2023/01/22 01:48:23;;;;;;;;;50.50;39.00;;;;;;;;4917342;28;45400;-76
2023/01/22 01:50:53;;;;;;;;;39.00;34.75;;;;;;;;4917787;28;45334;-75
2023/01/22 01:53:18;;;;;;;;;39.75;38.00;;;;;;;;4918021;28;45324;-75
2023/01/22 01:55:43;;;;;;;;;40.25;35.50;;;;;;;;4917833;28;46273;-75
2023/01/22 01:58:10;;;;;;;;;36.25;33.00;;;;;;;;4918155;28;45358;-76
2023/01/22 02:00:37;;;;;;;;;39.75;37.75;;;;;;;;4917825;28;45247;-76
2023/01/22 02:03:02;;;;;;;;;31.50;25.75;;;;;;;;4916469;28;45435;-75
2023/01/22 02:05:30;;;;;;;;;41.25;37.50;;;;;;;;4917663;28;46164;-76
2023/01/22 02:07:56;;;;;;;;;47.00;38.00;;;;;;;;4918001;28;45473;-76
2023/01/22 02:10:21;;;;;;;;;58.50;43.00;;;;;;;;4918812;28;45455;-77
2023/01/22 02:12:48;;;;;;;;;46.50;39.25;;;;;;;;4917911;28;45453;-76
2023/01/22 02:15:13;;;;;;;;;26.00;25.50;;;;;;;;4920449;28;45417;-76
2023/01/22 02:17:38;;;;;;;;;44.25;42.00;;;;;;;;4920712;28;45290;-76
2023/01/22 02:20:04;;;;;;;;;42.25;41.00;;;;;;;;4921081;28;45354;-76
2023/01/22 02:22:31;;;;;;;;;37.75;35.00;;;;;;;;4921020;28;45390;-76
2023/01/22 02:24:57;;;;;;;;;45.00;39.25;;;;;;;;4920676;28;46388;-76
2023/01/22 02:27:22;;;;;;;;;48.00;41.50;;;;;;;;4919533;28;45416;-76
2023/01/22 02:29:48;;;;;;;;;43.50;39.00;;;;;;;;4921105;28;45317;-77
2023/01/22 02:32:13;;;;;;;;;46.25;37.50;;;;;;;;4920416;28;45450;-76
2023/01/22 02:34:38;;;;;;;;;53.75;41.25;;;;;;;;4920925;28;45477;-76
2023/01/22 02:37:03;;;;;;;;;36.50;36.50;;;;;;;;4919419;28;45563;-76
2023/01/22 02:39:29;;;;;;;;;52.75;42.25;;;;;;;;4920972;28;45374;-76
2023/01/22 02:41:54;;;;;;;;;45.25;40.00;;;;;;;;4920759;28;45342;-76
2023/01/22 02:44:20;;;;;;;;;49.50;42.25;;;;;;;;4920621;28;45346;-75
2023/01/22 02:46:45;;;;;;;;;50.00;43.00;;;;;;;;4920464;28;45366;-76
2023/01/22 02:49:10;;;;;;;;;49.50;43.25;;;;;;;;4920740;28;45425;-76
2023/01/22 02:51:35;;;;;;;;;42.00;37.75;;;;;;;;4920264;28;45291;-76
2023/01/22 02:54:00;;;;;;;;;40.50;39.00;;;;;;;;4920447;28;45398;-76
2023/01/22 02:56:26;;;;;;;;;59.25;47.00;;;;;;;;4920558;28;45311;-76
2023/01/22 02:58:51;;;;;;;;;40.00;36.00;;;;;;;;4920506;28;45374;-76
2023/01/22 03:01:19;;;;;;;;;45.50;40.00;;;;;;;;4920403;28;45300;-76
2023/01/22 03:03:48;;;;;;;;;47.75;43.00;;;;;;;;4920531;28;46217;-76
2023/01/22 03:06:14;;;;;;;;;43.75;39.50;;;;;;;;4920048;28;45472;-76
2023/01/22 03:08:40;;;;;;;;;45.00;43.00;;;;;;;;4920639;28;45398;-76
2023/01/22 03:11:05;;;;;;;;;53.00;45.75;;;;;;;;4920429;28;45533;-76
2023/01/22 03:21:44;;;;;;;;;47.50;40.00;;;;;;;;4920205;28;45391;-76
2023/01/22 03:24:10;;;;;;;;;53.50;46.25;;;;;;;;4919829;28;45347;-76
2023/01/22 03:26:35;;;;;;;;;47.50;42.50;;;;;;;;4920265;28;45434;-76
2023/01/22 03:29:00;;;;;;;;;58.50;44.50;;;;;;;;4920195;28;45592;-76
2023/01/22 03:31:25;;;;;;;;;57.50;45.50;;;;;;;;4919901;28;45499;-76
2023/01/22 03:33:50;;;;;;;;;51.50;46.75;;;;;;;;4919904;28;46400;-76
2023/01/22 03:36:16;;;;;;;;;52.75;43.75;;;;;;;;4919761;28;45616;-76
2023/01/22 03:38:41;;;;;;;;;52.00;42.75;;;;;;;;4920228;28;45380;-76
2023/01/22 03:41:10;;;;;;;;;47.50;42.00;;;;;;;;4919871;28;45399;-76
2023/01/22 03:43:36;;;;;;;;;56.25;39.75;;;;;;;;4919681;28;46160;-76
2023/01/22 03:46:05;;;;;;;;;50.50;44.75;;;;;;;;4919726;28;45373;-77
2023/01/22 03:48:30;;;;;;;;;58.25;49.00;;;;;;;;4920067;28;45430;-76
2023/01/22 03:50:55;;;;;;;;;38.25;35.25;;;;;;;;4919768;28;45358;-77
2023/01/22 03:53:21;;;;;;;;;42.75;33.50;;;;;;;;4919832;28;47015;-76
2023/01/22 03:55:54;;;;;;;;;56.50;43.00;;;;;;;;4919714;28;45341;-77
2023/01/22 03:58:19;;;;;;;;;55.75;45.75;;;;;;;;4919584;28;45429;-76
2023/01/22 04:00:46;;;;;;;;;61.25;42.75;;;;;;;;4919557;28;45366;-76
2023/01/22 04:03:11;;;;;;;;;54.50;41.75;;;;;;;;4919160;28;45408;-76
2023/01/22 04:05:36;;;;;;;;;35.50;32.25;;;;;;;;4918850;28;45516;-76
2023/01/22 04:08:02;;;;;;;;;36.50;33.25;;;;;;;;4919185;28;45386;-76
2023/01/22 04:10:27;;;;;;;;;38.75;31.25;;;;;;;;4919060;28;45388;-76
2023/01/22 04:12:53;;;;;;;;;42.50;39.00;;;;;;;;4919220;28;45409;-76
2023/01/22 04:15:18;;;;;;;;;44.75;40.50;;;;;;;;4917777;28;45423;-77
2023/01/22 04:17:43;;;;;;;;;53.75;41.25;;;;;;;;4917842;28;45358;-76
2023/01/22 04:20:09;;;;;;;;;45.50;39.25;;;;;;;;4917944;28;45427;-76
2023/01/22 04:22:34;;;;;;;;;38.75;36.50;;;;;;;;4919065;28;46441;-76
2023/01/22 04:24:59;;;;;;;;;45.00;40.25;;;;;;;;4919287;28;45435;-76
2023/01/22 04:27:24;;;;;;;;;46.50;41.25;;;;;;;;4919279;28;45243;-76
2023/01/22 04:29:50;;;;;;;;;36.50;36.00;;;;;;;;4919298;28;45291;-76
2023/01/22 04:32:15;;;;;;;;;35.00;31.25;;;;;;;;4918828;28;45338;-76
2023/01/22 04:34:40;;;;;;;;;34.50;30.75;;;;;;;;4919294;28;45529;-76
2023/01/22 04:37:05;;;;;;;;;41.25;38.00;;;;;;;;4918406;28;45270;-76
2023/01/22 04:39:30;;;;;;;;;42.50;34.50;;;;;;;;4919309;28;45442;-76
2023/01/22 04:41:56;;;;;;;;;48.00;42.25;;;;;;;;4917157;28;46171;-76
2023/01/22 04:44:21;;;;;;;;;41.00;32.00;;;;;;;;4918598;28;45466;-76
2023/01/22 04:46:46;;;;;;;;;43.75;37.75;;;;;;;;4919087;28;45500;-76
2023/01/22 04:49:11;;;;;;;;;52.25;43.25;;;;;;;;4918990;28;45419;-76
2023/01/22 04:51:36;;;;;;;;;43.00;39.00;;;;;;;;4918273;28;45460;-76
2023/01/22 04:54:02;;;;;;;;;61.50;46.25;;;;;;;;4919001;28;45337;-76
2023/01/22 04:56:27;;;;;;;;;45.75;40.25;;;;;;;;4918784;28;45791;-76
2023/01/22 04:58:52;;;;;;;;;43.50;39.75;;;;;;;;4918878;28;45402;-76
2023/01/22 05:01:17;;;;;;;;;35.75;31.50;;;;;;;;4918632;28;46715;-76
2023/01/22 05:03:43;;;;;;;;;40.00;37.75;;;;;;;;4918514;28;45285;-76
2023/01/22 05:06:08;;;;;;;;;33.25;24.25;;;;;;;;4918630;28;45347;-76
2023/01/22 05:08:34;;;;;;;;;33.50;30.50;;;;;;;;4918917;28;45288;-76
2023/01/22 05:10:59;;;;;;;;;37.75;33.00;;;;;;;;4918206;28;47283;-76
2023/01/22 05:13:25;;;;;;;;;29.00;26.00;;;;;;;;4918509;28;45366;-76
2023/01/22 05:15:50;;;;;;;;;33.50;29.50;;;;;;;;4917318;28;45426;-76
2023/01/22 05:18:15;;;;;;;;;39.75;31.50;;;;;;;;4918670;28;45428;-76
2023/01/22 05:20:40;;;;;;;;;38.00;33.50;;;;;;;;4917551;28;46133;-76
2023/01/22 05:23:05;;;;;;;;;40.25;34.00;;;;;;;;4918384;28;45423;-75
2023/01/22 05:25:31;;;;;;;;;44.75;36.25;;;;;;;;4918697;28;45379;-76
2023/01/22 05:27:56;;;;;;;;;40.50;37.50;;;;;;;;4919284;28;45346;-76
2023/01/22 05:30:21;;;;;;;;;43.75;34.75;;;;;;;;4918999;28;47248;-76
2023/01/22 05:32:46;;;;;;;;;43.50;33.25;;;;;;;;4917044;28;45335;-76
2023/01/22 05:35:12;;;;;;;;;45.25;39.25;;;;;;;;4917156;28;45307;-75
2023/01/22 05:37:37;;;;;;;;;42.25;34.00;;;;;;;;4918342;28;45472;-76
2023/01/22 05:40:04;;;;;;;;;38.50;37.50;;;;;;;;4917832;28;47258;-76
2023/01/22 05:42:29;;;;;;;;;45.50;38.25;;;;;;;;4918112;28;45291;-76
2023/01/22 05:44:54;;;;;;;;;42.00;37.25;;;;;;;;4917912;28;45394;-76
2023/01/22 05:47:19;;;;;;;;;43.75;38.50;;;;;;;;4918251;28;45333;-76
2023/01/22 05:49:45;;;;;;;;;47.50;40.75;;;;;;;;4917741;28;45223;-76
2023/01/22 05:52:10;;;;;;;;;48.25;34.75;;;;;;;;4916585;28;45371;-76
2023/01/22 05:54:36;;;;;;;;;48.25;42.75;;;;;;;;4917932;28;45358;-76
2023/01/22 05:57:02;;;;;;;;;44.75;40.25;;;;;;;;4917975;28;45332;-76
2023/01/22 05:59:27;;;;;;;;;32.75;31.75;;;;;;;;4918153;28;45378;-75
2023/01/22 06:01:52;;;;;;;;;44.50;36.50;;;;;;;;4917913;28;45489;-76
2023/01/22 06:04:17;;;;;;;;;51.75;43.50;;;;;;;;4917897;28;45310;-75
2023/01/22 06:06:43;;;;;;;;;49.00;37.25;;;;;;;;4917898;28;45371;-76
2023/01/22 06:09:10;;;;;;;;;47.00;37.00;;;;;;;;4917251;28;45520;-76
2023/01/22 06:11:35;;;;;;;;;48.75;41.75;;;;;;;;4917596;28;45374;-75
2023/01/22 06:14:00;;;;;;;;;45.50;38.50;;;;;;;;4918008;28;45367;-76
2023/01/22 06:16:25;;;;;;;;;44.25;37.25;;;;;;;;4917916;28;45451;-76
2023/01/22 06:18:51;;;;;;;;;43.50;35.50;;;;;;;;4917659;28;46348;-75
2023/01/22 06:21:16;;;;;;;;;46.50;40.25;;;;;;;;4917717;28;45365;-75
2023/01/22 06:23:41;;;;;;;;;41.00;37.25;;;;;;;;4917438;28;45501;-75
2023/01/22 06:26:06;;;;;;;;;43.25;38.00;;;;;;;;4917587;28;45370;-75
2023/01/22 06:28:31;;;;;;;;;47.50;39.75;;;;;;;;4917634;28;46473;-75
2023/01/22 06:30:58;;;;;;;;;41.25;36.50;;;;;;;;4917266;28;45366;-75
2023/01/22 06:33:23;;;;;;;;;38.50;34.75;;;;;;;;4917313;28;45395;-74
2023/01/22 06:35:52;;;;;;;;;41.75;35.75;;;;;;;;4917426;28;45427;-74
2023/01/22 06:38:18;;;;;;;;;39.50;33.75;;;;;;;;4917037;28;46391;-74
2023/01/22 06:40:49;;;;;;;;;38.75;34.00;;;;;;;;4917315;28;45325;-74
2023/01/22 06:43:14;;;;;;;;;36.00;31.00;;;;;;;;4917944;28;45225;-74
2023/01/22 06:45:39;;;;;;;;;41.75;35.25;;;;;;;;4917680;28;45424;-75
2023/01/22 06:48:04;;;;;;;;;36.25;34.00;;;;;;;;4917532;28;47473;-76
2023/01/22 06:50:30;;;;;;;;;45.00;38.00;;;;;;;;4917123;28;45327;-76
2023/01/22 06:52:55;;;;;;;;;45.25;37.50;;;;;;;;4916792;28;45328;-76
2023/01/22 06:55:20;;;;;;;;;46.25;42.00;;;;;;;;4917444;28;45335;-76
2023/01/22 06:57:45;;;;;;;;;43.50;36.00;;;;;;;;4916869;28;46035;-76
2023/01/22 07:00:11;;;;;;;;;44.00;36.25;;;;;;;;4918503;28;45220;-76
2023/01/22 07:02:36;;;;;;;;;37.00;32.75;;;;;;;;4920665;28;45275;-76
2023/01/22 07:05:01;;;;;;;;;39.50;37.25;;;;;;;;4920467;28;45210;-76
2023/01/22 07:07:26;;;;;;;;;41.75;34.75;;;;;;;;4920119;28;45274;-75
2023/01/22 07:09:51;;;;;;;;;40.00;35.25;;;;;;;;4920042;28;45423;-77
2023/01/22 07:12:16;;;;;;;;;49.75;40.75;;;;;;;;4920168;28;45481;-75
2023/01/22 07:14:42;;;;;;;;;37.00;35.00;;;;;;;;4920507;28;45241;-74
2023/01/22 07:17:07;;;;;;;;;37.50;34.25;;;;;;;;4919494;28;46148;-75
2023/01/22 07:19:32;;;;;;;;;39.75;34.75;;;;;;;;4918636;28;45411;-75
2023/01/22 07:21:57;;;;;;;;;44.00;37.25;;;;;;;;4919619;28;45261;-75
2023/01/22 07:24:22;;;;;;;;;50.00;36.75;;;;;;;;4919722;28;45441;-75
2023/01/22 07:26:48;;;;;;;;;35.75;34.50;;;;;;;;4920076;28;45494;-75
2023/01/22 07:29:13;;;;;;;;;39.25;32.50;;;;;;;;4919965;28;45389;-75
2023/01/22 07:31:38;;;;;;;;;52.00;38.50;;;;;;;;4919489;28;45868;-78
2023/01/22 07:34:05;;;;;;;;;44.25;38.00;;;;;;;;4919931;28;45466;-75
2023/01/22 07:36:30;;;;;;;;;45.25;37.50;;;;;;;;4919702;28;45465;-75
2023/01/22 07:38:56;;;;;;;;;46.50;39.50;;;;;;;;4919750;28;45911;-75
2023/01/22 07:41:21;;;;;;;;;43.75;37.75;;;;;;;;4919922;28;45397;-75
2023/01/22 07:43:48;;;;;;;;;47.50;39.00;;;;;;;;4919699;28;45407;-75
2023/01/22 07:46:13;;;;;;;;;47.00;38.25;;;;;;;;4919090;28;46207;-75
2023/01/22 07:48:39;;;;;;;;;46.00;39.25;;;;;;;;4919793;28;45932;-75
2023/01/22 07:51:05;;;;;;;;;41.00;37.00;;;;;;;;4919494;28;45319;-75
2023/01/22 07:53:30;;;;;;;;;38.75;32.75;;;;;;;;4881707;29;45340;-74
2023/01/22 07:55:55;;;;;;;;;47.25;38.50;;;;;;;;4881352;29;47062;-74
2023/01/22 07:58:21;;;;;;;;;39.75;37.00;;;;;;;;4881607;29;45236;-76
2023/01/22 08:00:46;;;;;;;;;35.50;31.75;;;;;;;;4880376;29;45328;-75
2023/01/22 08:03:13;;;;;;;;;44.75;39.50;;;;;;;;4895913;29;45600;-76
2023/01/22 08:05:39;;;;;;;;;43.75;35.50;;;;;;;;4879688;29;48402;-76
2023/01/22 08:08:05;;;;;;;;;50.50;41.75;;;;;;;;4881585;29;45364;-76
2023/01/22 08:10:30;;;;;;;;;45.75;40.00;;;;;;;;4881032;29;45368;-76
2023/01/22 08:12:55;;;;;;;;;47.50;40.50;;;;;;;;4880803;29;45492;-76
2023/01/22 08:15:20;;;;;;;;;36.50;28.75;;;;;;;;4881483;29;46239;-76
2023/01/22 08:17:47;;;;;;;;;42.75;37.75;;;;;;;;4881253;29;45431;-76
2023/01/22 08:20:12;;;;;;;;;36.25;30.25;;;;;;;;4918089;28;45307;-76
2023/01/22 08:22:37;;;;;;;;;34.50;34.50;;;;;;;;4898439;28;45540;-76
2023/01/22 08:25:03;;;;;;;;;40.75;38.00;;;;;;;;4889954;29;45382;-77
2023/01/22 08:27:28;;;;;;;;;50.75;39.75;;;;;;;;4899453;28;45313;-76
2023/01/22 08:29:54;;;;;;;;;40.75;38.00;;;;;;;;4899746;28;45334;-76
2023/01/22 08:32:19;;;;;;;;;35.25;31.50;;;;;;;;4899460;28;45573;-77
2023/01/22 08:34:44;;;;;;;;;35.75;29.50;;;;;;;;4899640;28;45379;-76
2023/01/22 08:37:10;;;;;;;;;41.50;35.25;;;;;;;;4899953;28;45357;-76
2023/01/22 08:39:35;;;;;;;;;30.50;26.50;;;;;;;;4900719;28;45368;-76
2023/01/22 08:42:00;;;;;;;;;31.25;30.75;;;;;;;;4901584;28;45324;-79
2023/01/22 08:44:25;;;;;;;;;37.00;30.75;;;;;;;;4904685;28;45263;-79
2023/01/22 08:46:51;;;;;;;;;21.75;19.75;;;;;;;;4911278;28;45266;-78
2023/01/22 08:49:17;;;;;;;;;18.25;17.50;;;;;;;;4899795;28;45229;-79
2023/01/22 08:51:42;;;;;;;;;30.25;27.50;;;;;;;;4906183;28;45443;-78
2023/01/22 08:54:07;;;;;;;;;30.25;29.50;;;;;;;;4918604;28;46363;-79
2023/01/22 08:56:33;;;;;;;;;28.75;26.00;;;;;;;;4918732;28;45438;-79
2023/01/22 08:59:00;;;;;;;;;26.75;26.75;;;;;;;;4917561;28;45266;-79
2023/01/22 09:01:26;;;;;;;;;28.75;24.25;;;;;;;;4919267;28;45333;-78
2023/01/22 09:03:51;;;;;;;;;35.25;30.25;;;;;;;;4919696;28;46238;-79
2023/01/22 09:06:16;;;;;;;;;31.75;28.75;;;;;;;;4918126;28;45470;-79
2023/01/22 09:08:42;;;;;;;;;33.25;29.00;;;;;;;;4918798;28;45472;-79
2023/01/22 09:11:07;;;;;;;;;32.75;26.75;;;;;;;;4917168;28;45351;-77
2023/01/22 09:13:32;;;;;;;;;35.75;31.25;;;;;;;;4918436;28;47291;-78
2023/01/22 09:15:58;;;;;;;;;30.50;30.00;;;;;;;;4918647;28;45330;-77
2023/01/22 09:18:23;;;;;;;;;34.00;29.75;;;;;;;;4918374;28;45353;-77
2023/01/22 09:20:48;;;;;;;;;32.75;29.25;;;;;;;;4918371;28;45398;-79
2023/01/22 09:23:14;;;;;;;;;38.75;32.50;;;;;;;;4917965;28;45369;-78
2023/01/22 09:25:39;;;;;;;;;33.75;25.50;;;;;;;;4916976;28;45340;-78
2023/01/22 09:28:07;;;;;;;;;39.00;35.50;;;;;;;;4918472;28;45365;-79
2023/01/22 09:30:33;;;;;;;;;32.50;32.50;;;;;;;;4918531;28;45370;-79
2023/01/22 09:32:58;;;;;;;;;36.25;30.25;;;;;;;;4918361;28;45373;-78
2023/01/22 09:35:23;;;;;;;;;35.25;32.25;;;;;;;;4917966;28;45370;-78
2023/01/22 09:37:49;;;;;;;;;31.50;30.50;;;;;;;;4918220;28;45478;-79
2023/01/22 09:40:20;;;;;;;;;38.50;35.00;;;;;;;;4918028;28;45325;-78
2023/01/22 09:42:45;;;;;;;;;39.00;31.25;;;;;;;;4918076;28;45688;-78
2023/01/22 09:45:12;;;;;;;;;27.50;22.25;;;;;;;;4917580;28;45372;-77
2023/01/22 09:47:48;;;;;;;;;33.25;30.00;;;;;;;;4917691;28;45430;-78
2023/01/22 09:50:18;;;;;;;;;31.00;29.75;;;;;;;;4917927;28;45401;-77
2023/01/22 09:52:44;;;;;;;;;35.25;34.00;;;;;;;;4917883;28;45656;-78
2023/01/22 09:55:13;;;;;;;;;20.75;19.75;;;;;;;;4917396;28;45277;-78
2023/01/22 09:57:47;;;;;;;;;40.50;34.00;;;;;;;;4916763;28;45837;-78
2023/01/22 10:00:18;;;;;;;;;41.50;34.50;;;;;;;;4917574;28;45279;-77
2023/01/22 10:02:45;;;;;;;;;29.50;28.25;;;;;;;;4917518;28;46429;-78
2023/01/22 10:05:10;;;;;;;;;33.25;29.50;;;;;;;;4917113;28;45318;-78
2023/01/22 10:07:38;;;;;;;;;36.50;35.00;;;;;;;;4917515;28;45219;-78
2023/01/22 10:10:30;;;;;;;;;36.00;30.00;;;;;;;;4917641;28;45406;-78
2023/01/22 10:12:55;;;;;;;;;34.50;31.75;;;;;;;;4916197;28;45781;-77
2023/01/22 10:15:22;;;;;;;;;28.50;23.50;;;;;;;;4917302;28;45291;-79
2023/01/22 10:17:47;;;;;;;;;32.50;30.00;;;;;;;;4917192;28;45461;-78
2023/01/22 10:20:13;;;;;;;;;25.25;23.50;;;;;;;;4917546;28;45276;-77
2023/01/22 10:22:38;;;;;;;;;33.00;29.00;;;;;;;;4915899;28;45389;-77
2023/01/22 10:25:04;;;;;;;;;30.50;27.25;;;;;;;;4917426;28;45797;-78
2023/01/22 10:27:38;;;;;;;;;28.00;25.75;;;;;;;;4917596;28;45399;-78
2023/01/22 10:30:07;;;;;;;;;33.00;29.25;;;;;;;;4917104;28;45355;-77
2023/01/22 10:32:33;;;;;;;;;76.75;61.75;;;;;;;;4916844;28;45690;-78
2023/01/22 10:34:58;;;;;;;;;54.25;44.00;;;;;;;;4918587;28;45165;-78
2023/01/22 10:37:23;;;;;;;;;27.50;26.75;;;;;;;;4920893;28;45541;-77
2023/01/22 10:39:51;;;;;;;;;34.00;30.25;;;;;;;;4920561;28;45318;-77
2023/01/22 10:42:17;;;;;;;;;25.50;23.25;;;;;;;;4920525;28;47537;-78
2023/01/22 10:44:42;;;;;;;;;41.50;35.50;;;;;;;;4920428;28;45479;-78
2023/01/22 10:47:11;;;;;;;;;26.50;24.75;;;;;;;;4919359;28;45401;-78
2023/01/22 10:49:36;;;;;;;;;22.00;18.25;;;;;;;;4914969;28;45581;-78
2023/01/22 10:52:05;;;;;;;;;31.00;28.25;;;;;;;;4889215;28;47124;-78
2023/01/22 10:54:31;;;;;;;;;31.00;28.50;;;;;;;;4895441;29;45280;-77
2023/01/22 10:57:22;;;;;;;;;26.50;21.50;;;;;;;;4900671;28;45324;-77
2023/01/22 10:59:52;;;;;;;;;34.50;27.50;;;;;;;;4879287;29;45485;-77
2023/01/22 11:02:20;;;;;;;;;23.00;22.25;;;;;;;;4878880;29;46697;-78
2023/01/22 11:04:45;;;;;;;;;28.25;24.50;;;;;;;;4863756;29;45429;-78
2023/01/22 11:07:10;;;;;;;;;27.25;24.50;;;;;;;;4879406;29;45488;-77
2023/01/22 11:09:38;;;;;;;;;23.75;22.50;;;;;;;;4879242;29;45500;-78
2023/01/22 11:12:23;;;;;;;;;26.50;22.25;;;;;;;;4879291;29;45428;-77
2023/01/22 11:14:56;;;;;;;;;25.00;23.50;;;;;;;;4878653;29;45384;-77
2023/01/22 11:17:25;;;;;;;;;15.00;13.00;;;;;;;;4879365;29;45509;-77
2023/01/22 11:19:55;;;;;;;;;23.00;18.00;;;;;;;;4879288;29;45485;-77
2023/01/22 11:22:25;;;;;;;;;28.00;23.50;;;;;;;;4878742;29;46110;-76
2023/01/22 11:24:50;;;;;;;;;25.00;21.25;;;;;;;;4878966;29;45291;-79
2023/01/22 11:27:21;;;;;;;;;21.50;20.75;;;;;;;;4879143;29;45379;-76
2023/01/22 11:30:04;;;;;;;;;24.25;19.00;;;;;;;;4878977;29;45471;-77
2023/01/22 11:32:48;;;;;;;;;20.00;15.00;;;;;;;;4878915;29;46776;-75
2023/01/22 11:35:13;;;;;;;;;24.50;20.00;;;;;;;;4879180;29;45476;-77
2023/01/22 11:37:56;;;;;;;;;23.75;22.25;;;;;;;;4897127;29;45533;-77
2023/01/22 11:40:27;;;;;;;;;26.75;23.50;;;;;;;;4900441;28;45434;-76
2023/01/22 11:42:55;;;;;;;;;25.25;20.25;;;;;;;;4900067;29;45599;-77
2023/01/22 11:45:40;;;;;;;;;21.50;18.50;;;;;;;;4900752;28;45477;-76
2023/01/22 11:48:11;;;;;;;;;22.25;20.50;;;;;;;;4869663;29;45381;-77
2023/01/22 11:50:37;;;;;;;;;28.25;27.00;;;;;;;;4876045;29;45432;-77
2023/01/22 11:53:21;;;;;;;;;32.25;26.50;;;;;;;;4878744;29;46626;-76
2023/01/22 11:56:05;;;;;;;;;26.00;23.25;;;;;;;;4862543;29;45345;-77
2023/01/22 11:58:36;;;;;;;;;22.00;22.00;;;;;;;;4859683;29;45528;-77
2023/01/22 12:01:10;;;;;;;;;25.00;21.75;;;;;;;;4875099;29;45445;-78
2023/01/22 12:03:54;;;;;;;;;27.00;25.75;;;;;;;;4865680;29;46604;-77
2023/01/22 12:06:19;;;;;;;;;19.25;13.75;;;;;;;;4866397;29;45514;-76
2023/01/22 12:08:52;;;;;;;;;28.25;24.00;;;;;;;;4875361;29;45423;-78
2023/01/22 12:11:26;;;;;;;;;22.75;21.75;;;;;;;;4863487;29;45533;-79
2023/01/22 12:14:10;;;;;;;;;19.50;18.50;;;;;;;;4877867;29;45391;-76
2023/01/22 12:16:35;;;;;;;;;25.25;24.25;;;;;;;;4856959;29;45545;-75
2023/01/22 12:19:18;;;;;;;;;30.00;29.25;;;;;;;;4845761;29;45965;-75
2023/01/22 12:22:03;;;;;;;;;24.50;19.75;;;;;;;;4870793;29;46020;-75
2023/01/22 12:24:33;;;;;;;;;16.75;16.00;;;;;;;;4876329;29;45447;-76
2023/01/22 12:27:01;;;;;;;;;20.00;17.75;;;;;;;;4899028;28;45512;-76
2023/01/22 12:29:40;;;;;;;;;21.00;18.00;;;;;;;;4899446;28;45347;-74
2023/01/22 12:32:10;;;;;;;;;20.00;16.50;;;;;;;;4899343;28;45444;-77
2023/01/22 12:34:54;;;;;;;;;28.00;27.00;;;;;;;;4899353;28;46387;-76
2023/01/22 12:37:22;;;;;;;;;22.25;21.50;;;;;;;;4884742;29;45489;-77
2023/01/22 12:40:02;;;;;;;;;19.50;17.00;;;;;;;;4899445;29;45340;-75
2023/01/22 12:42:42;;;;;;;;;17.50;16.00;;;;;;;;4896689;29;62532;-76
2023/01/22 12:45:20;;;;;;;;;17.75;16.00;;;;;;;;4898994;28;45406;-77
2023/01/22 12:48:08;;;;;;;;;13.75;13.75;;;;;;;;4899296;28;45412;-77
2023/01/22 12:50:34;;;;;;;;;8.25;6.50;;;;;;;;4896784;29;45376;-77
2023/01/22 12:53:01;;;;;;;;;21.50;19.25;;;;;;;;4914420;28;45400;-76
2023/01/22 12:55:34;;;;;;;;;18.00;17.00;;;;;;;;4918281;28;46044;-76
2023/01/22 12:57:59;;;;;;;;;17.75;15.00;;;;;;;;4917827;28;45289;-76
2023/01/22 13:00:32;;;;;;;;;19.75;17.00;;;;;;;;4918629;28;45391;-75
2023/01/22 13:02:58;;;;;;;;;15.75;15.75;;;;;;;;4918484;28;45363;-75
2023/01/22 13:05:29;;;;;;;;;20.25;19.25;;;;;;;;4918424;28;45427;-75
2023/01/22 13:08:05;;;;;;;;;16.75;15.50;;;;;;;;4918496;28;45349;-76
2023/01/22 13:10:31;;;;;;;;;13.00;13.00;;;;;;;;4918257;28;45367;-75
2023/01/22 13:13:02;;;;;;;;;12.75;12.25;;;;;;;;4918134;28;45578;-76
2023/01/22 13:15:29;;;;;;;;;21.00;17.00;;;;;;;;4917926;28;47181;-76
2023/01/22 13:18:00;;;;;;;;;16.50;15.50;;;;;;;;4918112;28;45357;-76
2023/01/22 13:20:27;;;;;;;;;18.50;14.50;;;;;;;;4918524;28;45524;-72
2023/01/22 13:22:54;;;;;;;;;15.50;14.50;;;;;;;;4916967;28;45512;-74
2023/01/22 13:25:20;;;;;;;;;16.50;14.50;;;;;;;;4917574;28;46015;-73
2023/01/22 13:27:47;;;;;;;;;12.25;12.00;;;;;;;;4917906;28;45485;-73
2023/01/22 13:30:12;;;;;;;;;13.00;11.00;;;;;;;;4917121;28;45395;-73
2023/01/22 13:32:37;;;;;;;;;11.25;8.00;;;;;;;;4917026;28;45357;-73
2023/01/22 13:35:04;;;;;;;;;22.25;22.00;;;;;;;;4918392;28;46025;-74
2023/01/22 13:37:29;;;;;;;;;19.75;17.25;;;;;;;;4918106;28;45215;-73
2023/01/22 13:39:55;;;;;;;;;24.25;21.00;;;;;;;;4902147;28;45414;-73
2023/01/22 13:42:20;;;;;;;;;16.00;13.75;;;;;;;;4895880;28;45358;-75
2023/01/22 13:44:47;;;;;;;;;15.25;14.00;;;;;;;;4898635;28;45364;-74
2023/01/22 13:47:39;;;;;;;;;15.25;15.25;;;;;;;;4898367;28;45474;-74
2023/01/22 13:50:04;;;;;;;;;14.25;13.00;;;;;;;;4897281;28;45584;-73
2023/01/22 13:52:32;;;;;;;;;13.50;13.00;;;;;;;;4905920;28;45297;-74
2023/01/22 13:55:04;;;;;;;;;18.00;17.50;;;;;;;;4898080;28;46558;-77
2023/01/22 13:57:29;;;;;;;;;15.75;15.75;;;;;;;;4897251;28;45304;-77
2023/01/22 13:59:56;;;;;;;;;17.00;17.00;;;;;;;;4896119;28;45439;-77
2023/01/22 14:02:22;;;;;;;;;21.50;18.75;;;;;;;;4898222;28;45296;-77
2023/01/22 14:04:48;;;;;;;;;18.75;13.75;;;;;;;;4898443;28;45402;-76
2023/01/22 14:07:32;;;;;;;;;16.50;16.50;;;;;;;;4897956;28;45477;-76
2023/01/22 14:10:10;;;;;;;;;16.00;15.00;;;;;;;;4898503;29;45371;-76
2023/01/22 14:12:35;;;;;;;;;20.00;18.25;;;;;;;;4887633;29;45360;-77
2023/01/22 14:15:00;;;;;;;;;21.00;13.75;;;;;;;;4902432;29;45375;-74
2023/01/22 14:17:27;;;;;;;;;18.25;18.25;;;;;;;;4901530;28;45616;-73
2023/01/22 14:19:53;;;;;;;;;21.75;21.00;;;;;;;;4885318;28;45540;-74
2023/01/22 14:22:18;;;;;;;;;13.00;12.75;;;;;;;;4895860;28;45306;-76
2023/01/22 14:24:44;;;;;;;;;19.00;18.00;;;;;;;;4893541;28;45959;-77